createdAt,value
2019-05-13T00:01:14.462Z,99.90
2019-05-13T00:03:44.346Z,99.90
2019-05-13T00:06:14.208Z,99.90
2019-05-13T00:08:44.123Z,99.90
2019-05-13T00:11:14.137Z,99.90
2019-05-13T00:13:44.343Z,99.90
2019-05-13T00:16:14.407Z,99.90
2019-05-13T00:18:44.525Z,99.90
2019-05-13T00:21:14.445Z,99.90
2019-05-13T00:23:44.374Z,99.90
2019-05-13T00:26:14.269Z,99.90
2019-05-13T00:28:44.324Z,99.90
2019-05-13T00:31:14.295Z,99.90
2019-05-13T00:33:44.512Z,99.90
2019-05-13T00:36:14.429Z,99.90
2019-05-13T00:38:44.269Z,99.90
2019-05-13T00:41:14.309Z,99.90
2019-05-13T00:43:44.564Z,99.90
2019-05-13T00:46:14.577Z,99.90
2019-05-13T00:48:44.387Z,99.90
2019-05-13T00:51:14.282Z,99.90
2019-05-13T00:53:44.321Z,99.90
2019-05-13T00:56:14.268Z,99.90
2019-05-13T00:58:44.149Z,99.90
2019-05-13T01:01:14.083Z,99.90
2019-05-13T01:03:44.274Z,99.90
2019-05-13T01:06:14.202Z,99.90
2019-05-13T01:08:44.323Z,99.90
2019-05-13T01:11:14.352Z,99.90
2019-05-13T01:13:44.180Z,99.90
2019-05-13T01:16:14.143Z,99.90
2019-05-13T01:18:43.978Z,99.90
2019-05-13T01:21:13.792Z,99.90
2019-05-13T01:23:43.969Z,99.90
2019-05-13T01:26:14.243Z,99.90
2019-05-13T01:28:44.098Z,99.90
2019-05-13T01:31:13.992Z,99.90
2019-05-13T01:33:44.524Z,99.90
2019-05-13T01:36:14.555Z,99.90
2019-05-13T01:38:44.376Z,99.90
2019-05-13T01:41:14.182Z,99.90
2019-05-13T01:43:44.182Z,99.90
2019-05-13T01:46:14.266Z,99.90
2019-05-13T01:48:44.078Z,99.90
2019-05-13T01:51:13.958Z,99.90
2019-05-13T01:53:44.184Z,99.90
2019-05-13T01:56:14.211Z,99.90
2019-05-13T01:58:44.982Z,99.90
2019-05-13T02:01:14.928Z,99.90
2019-05-13T02:03:44.737Z,99.90
2019-05-13T02:06:14.636Z,99.90
2019-05-13T02:08:44.444Z,99.90
2019-05-13T02:11:14.336Z,99.90
2019-05-13T02:13:44.657Z,99.90
2019-05-13T02:16:14.721Z,99.90
2019-05-13T02:18:44.587Z,99.90
2019-05-13T02:21:14.499Z,99.90
2019-05-13T02:23:44.419Z,99.90
2019-05-13T02:26:14.256Z,99.90
2019-05-13T02:28:44.086Z,99.90
2019-05-13T02:31:23.011Z,99.90
2019-05-13T02:33:45.350Z,99.90
2019-05-13T02:36:15.264Z,99.90
2019-05-13T02:38:45.127Z,99.90
2019-05-13T02:41:14.956Z,99.90
2019-05-13T02:43:45.533Z,99.90
2019-05-13T02:46:15.474Z,99.90
2019-05-13T02:48:45.307Z,99.90
2019-05-13T02:51:15.056Z,99.90
2019-05-13T02:53:44.880Z,99.90
2019-05-13T02:56:14.839Z,99.90
2019-05-13T02:58:44.702Z,99.90
2019-05-13T03:01:14.643Z,99.90
2019-05-13T03:03:44.610Z,99.90
2019-05-13T03:06:14.428Z,99.90
2019-05-13T03:08:49.587Z,99.90
2019-05-13T03:11:15.753Z,99.90
2019-05-13T03:13:45.622Z,99.90
2019-05-13T03:16:24.342Z,99.90
2019-05-13T03:18:54.227Z,99.90
2019-05-13T03:21:24.044Z,99.90
2019-05-13T03:23:53.890Z,99.90
2019-05-13T03:26:23.841Z,99.90
2019-05-13T03:28:53.768Z,99.90
2019-05-13T03:31:26.183Z,99.90
2019-05-13T03:33:56.540Z,99.90
2019-05-13T03:36:26.983Z,99.90
2019-05-13T03:39:05.797Z,99.90
2019-05-13T03:41:32.754Z,99.90
2019-05-13T03:44:04.213Z,99.90
2019-05-13T03:46:36.819Z,99.90
2019-05-13T03:49:13.280Z,99.90
2019-05-13T03:51:42.923Z,99.90
2019-05-13T03:54:13.242Z,99.90
2019-05-13T03:56:43.134Z,99.90
2019-05-13T03:59:13.461Z,99.90
2019-05-13T04:01:43.390Z,99.90
2019-05-13T04:04:13.253Z,99.90
2019-05-13T04:06:43.322Z,99.90
2019-05-13T04:09:25.477Z,99.90
2019-05-13T04:11:45.284Z,99.90
2019-05-13T04:14:15.157Z,99.90
2019-05-13T04:16:45.270Z,99.90
2019-05-13T04:19:15.078Z,99.90
2019-05-13T04:21:44.963Z,99.90
2019-05-13T04:24:15.007Z,99.90
2019-05-13T04:26:44.941Z,99.90
2019-05-13T04:29:15.073Z,99.90
2019-05-13T04:31:45.022Z,99.90
2019-05-13T04:34:15.026Z,99.90
2019-05-13T04:36:44.838Z,99.90
2019-05-13T04:39:14.772Z,99.90
2019-05-13T04:41:45.154Z,99.90
2019-05-13T04:44:15.105Z,99.90
2019-05-13T04:46:45.113Z,99.90
2019-05-13T04:49:15.440Z,99.90
2019-05-13T04:51:45.249Z,99.90
2019-05-13T04:54:15.118Z,99.90
2019-05-13T04:56:45.153Z,99.90
2019-05-13T04:59:15.150Z,99.90
2019-05-13T05:02:00.707Z,99.90
2019-05-13T05:04:56.639Z,99.90
2019-05-13T05:07:34.652Z,99.90
2019-05-13T05:10:56.696Z,99.90
2019-05-13T05:13:59.326Z,99.90
2019-05-13T05:17:07.167Z,99.90
2019-05-13T05:20:12.622Z,99.90
2019-05-13T05:23:16.762Z,99.90
2019-05-13T05:26:18.754Z,99.90
2019-05-13T05:29:26.972Z,99.90
2019-05-13T05:32:43.039Z,99.90
2019-05-13T05:35:53.125Z,99.90
2019-05-13T05:38:36.199Z,99.90
2019-05-13T05:41:07.869Z,99.90
2019-05-13T05:43:45.156Z,99.90
2019-05-13T05:46:14.446Z,99.90
2019-05-13T05:48:49.842Z,99.90
2019-05-13T05:51:22.038Z,99.90
2019-05-13T05:53:54.946Z,99.90
2019-05-13T05:56:26.901Z,99.90
2019-05-13T05:59:02.553Z,99.90
2019-05-13T06:01:32.769Z,99.90
2019-05-13T06:04:02.732Z,99.90
2019-05-13T06:06:33.147Z,99.90
2019-05-13T06:09:03.288Z,99.90
2019-05-13T06:11:35.193Z,99.90
2019-05-13T06:14:05.096Z,99.90
2019-05-13T06:16:34.980Z,99.90
2019-05-13T06:19:04.930Z,99.90
2019-05-13T06:21:35.394Z,99.90
2019-05-13T06:24:05.504Z,99.90
2019-05-13T06:26:35.393Z,99.90
2019-05-13T06:29:05.443Z,99.90
2019-05-13T06:31:35.723Z,99.90
2019-05-13T06:34:09.394Z,99.90
2019-05-13T06:36:41.662Z,99.90
2019-05-13T06:39:12.299Z,99.90
2019-05-13T06:41:42.397Z,99.90
2019-05-13T06:44:12.340Z,99.90
2019-05-13T06:46:42.498Z,99.90
2019-05-13T06:49:13.666Z,99.90
2019-05-13T06:51:43.636Z,99.90
2019-05-13T06:54:13.455Z,99.90
2019-05-13T06:56:43.334Z,99.90
2019-05-13T06:59:13.132Z,99.90
2019-05-13T07:01:43.108Z,99.90
2019-05-13T07:04:13.054Z,99.90
2019-05-13T07:06:42.958Z,99.90
2019-05-13T07:09:12.839Z,99.90
2019-05-13T07:11:42.735Z,99.90
2019-05-13T07:14:12.897Z,99.90
2019-05-13T07:16:42.789Z,99.90
2019-05-13T07:19:13.706Z,99.90
2019-05-13T07:21:43.593Z,99.90
2019-05-13T07:24:13.428Z,99.90
2019-05-13T07:26:43.314Z,99.90
2019-05-13T07:29:14.269Z,99.90
2019-05-13T07:31:44.637Z,99.90
2019-05-13T07:34:14.492Z,99.90
2019-05-13T07:36:44.477Z,99.90
2019-05-13T07:39:14.325Z,99.90
2019-05-13T07:41:44.196Z,99.90
2019-05-13T07:44:14.097Z,99.90
2019-05-13T07:46:43.906Z,99.90
2019-05-13T07:49:13.737Z,99.90
2019-05-13T07:51:43.533Z,99.90
2019-05-13T07:54:13.611Z,99.90
2019-05-13T07:56:43.422Z,99.90
2019-05-13T07:59:13.707Z,99.90
2019-05-13T08:01:43.552Z,99.90
2019-05-13T08:04:22.423Z,99.90
2019-05-13T08:06:45.437Z,99.90
2019-05-13T08:09:15.297Z,99.90
2019-05-13T08:12:00.541Z,99.90
2019-05-13T08:14:16.604Z,99.90
2019-05-13T08:16:46.599Z,99.90
2019-05-13T08:19:16.375Z,99.90
2019-05-13T08:21:46.456Z,98.00
2019-05-13T08:24:16.322Z,98.80
2019-05-13T08:26:49.964Z,98.50
2019-05-13T08:29:17.701Z,97.50
2019-05-13T08:31:47.552Z,95.60
2019-05-13T08:34:17.401Z,98.20
2019-05-13T08:36:47.202Z,96.70
2019-05-13T08:39:17.073Z,93.30
2019-05-13T08:41:46.923Z,92.20
2019-05-13T08:44:16.788Z,92.90
2019-05-13T08:46:46.673Z,90.70
2019-05-13T08:49:16.598Z,92.50
2019-05-13T08:51:46.480Z,91.50
2019-05-13T08:54:16.460Z,92.00
2019-05-13T08:56:46.273Z,92.20
2019-05-13T08:59:16.798Z,93.80
2019-05-13T09:01:46.777Z,91.10
2019-05-13T09:04:16.631Z,90.60
2019-05-13T09:06:46.746Z,89.70
2019-05-13T09:09:16.571Z,88.00
2019-05-13T09:11:46.509Z,83.50
2019-05-13T09:14:16.500Z,78.60
2019-05-13T09:16:46.458Z,79.20
2019-05-13T09:19:16.468Z,77.60
2019-05-13T09:21:46.450Z,73.90
2019-05-13T09:24:25.459Z,70.10
2019-05-13T09:26:47.858Z,69.00
2019-05-13T09:29:17.812Z,72.60
2019-05-13T09:31:47.746Z,69.90
2019-05-13T09:34:17.591Z,67.50
2019-05-13T09:36:47.414Z,64.60
2019-05-13T09:39:17.299Z,61.50
2019-05-13T09:41:47.141Z,57.90
2019-05-13T09:44:17.054Z,59.30
2019-05-13T09:46:46.872Z,59.70
2019-05-13T09:49:20.078Z,62.20
2019-05-13T09:51:48.198Z,59.00
2019-05-13T09:54:18.212Z,56.60
2019-05-13T09:56:48.198Z,57.80
2019-05-13T09:59:18.018Z,55.00
2019-05-13T10:01:47.922Z,55.50
2019-05-13T10:04:17.695Z,56.10
2019-05-13T10:06:47.521Z,57.10
2019-05-13T10:09:17.342Z,54.30
2019-05-13T10:11:47.193Z,54.50
2019-05-13T10:14:17.162Z,54.40
2019-05-13T10:16:47.052Z,54.40
2019-05-13T10:19:16.904Z,53.30
2019-05-13T10:21:46.794Z,47.80
2019-05-13T10:24:16.716Z,49.50
2019-05-13T10:26:46.877Z,49.40
2019-05-13T10:29:18.930Z,50.40
2019-05-13T10:31:51.395Z,50.70
2019-05-13T10:34:22.520Z,51.80
2019-05-13T10:36:53.209Z,49.60
2019-05-13T10:39:23.225Z,48.30
2019-05-13T10:41:53.183Z,49.70
2019-05-13T10:44:23.085Z,50.90
2019-05-13T10:46:53.065Z,51.90
2019-05-13T10:49:22.866Z,47.30
2019-05-13T10:51:52.948Z,48.90
2019-05-13T10:54:22.908Z,49.70
2019-05-13T10:56:56.137Z,50.00
2019-05-13T10:59:24.227Z,52.30
2019-05-13T11:01:54.089Z,50.60
2019-05-13T11:04:23.871Z,51.20
2019-05-13T11:06:53.752Z,50.10
2019-05-13T11:09:23.605Z,47.60
2019-05-13T11:11:53.506Z,50.50
2019-05-13T11:14:23.377Z,47.80
2019-05-13T11:16:53.397Z,49.20
2019-05-13T11:19:23.520Z,48.30
2019-05-13T11:21:53.440Z,48.20
2019-05-13T11:24:23.428Z,46.40
2019-05-13T11:26:53.429Z,46.00
2019-05-13T11:29:23.438Z,46.90
2019-05-13T11:31:53.283Z,46.50
2019-05-13T11:34:23.737Z,47.00
2019-05-13T11:36:53.746Z,48.60
2019-05-13T11:39:23.749Z,48.40
2019-05-13T11:41:53.626Z,48.40
2019-05-13T11:44:23.452Z,48.00
2019-05-13T11:46:53.427Z,43.50
2019-05-13T11:49:23.314Z,43.50
2019-05-13T11:51:53.179Z,44.20
2019-05-13T11:54:22.985Z,42.60
2019-05-13T11:57:01.660Z,42.00
2019-05-13T11:59:24.522Z,43.30
2019-05-13T12:01:54.403Z,42.60
2019-05-13T12:04:24.560Z,39.50
2019-05-13T12:06:54.974Z,39.50
2019-05-13T12:09:25.042Z,40.60
2019-05-13T12:11:54.809Z,39.10
2019-05-13T12:14:42.887Z,41.30
2019-05-13T12:16:56.112Z,40.40
2019-05-13T12:19:25.990Z,40.40
2019-05-13T12:21:55.763Z,39.00
2019-05-13T12:24:25.598Z,41.00
2019-05-13T12:26:55.422Z,42.50
2019-05-13T12:29:25.297Z,41.00
2019-05-13T12:31:55.647Z,41.00
2019-05-13T12:34:25.491Z,41.80
2019-05-13T12:36:55.268Z,41.40
2019-05-13T12:39:25.344Z,40.80
2019-05-13T12:41:56.702Z,40.00
2019-05-13T12:44:26.604Z,39.90
2019-05-13T12:46:56.516Z,40.20
2019-05-13T12:49:32.450Z,41.70
2019-05-13T12:52:03.525Z,43.50
2019-05-13T12:54:32.287Z,40.00
2019-05-13T12:57:03.608Z,38.10
2019-05-13T12:59:35.326Z,38.10
2019-05-13T13:02:05.181Z,38.10
2019-05-13T13:04:35.278Z,39.60
2019-05-13T13:07:05.244Z,39.70
2019-05-13T13:09:35.115Z,39.40
2019-05-13T13:12:05.031Z,39.40
2019-05-13T13:14:39.163Z,40.10
2019-05-13T13:17:06.561Z,40.20
2019-05-13T13:19:36.425Z,41.10
2019-05-13T13:22:07.862Z,41.60
2019-05-13T13:24:37.701Z,43.10
2019-05-13T13:27:14.816Z,40.60
2019-05-13T13:29:43.017Z,36.60
2019-05-13T13:32:13.358Z,36.80
2019-05-13T13:34:44.116Z,37.90
2019-05-13T13:37:13.903Z,40.00
2019-05-13T13:39:44.219Z,40.40
2019-05-13T13:42:14.041Z,39.50
2019-05-13T13:44:44.304Z,39.00
2019-05-13T13:47:15.108Z,39.10
2019-05-13T13:49:45.197Z,38.20
2019-05-13T13:52:16.282Z,40.20
2019-05-13T13:54:46.323Z,39.60
2019-05-13T13:57:16.186Z,39.00
2019-05-13T14:00:16.339Z,38.30
2019-05-13T14:02:17.544Z,36.00
2019-05-13T14:04:47.417Z,35.50
2019-05-13T14:07:29.981Z,35.30
2019-05-13T14:09:51.188Z,34.80
2019-05-13T14:12:21.959Z,35.20
2019-05-13T14:14:52.204Z,35.00
2019-05-13T14:17:22.119Z,32.40
2019-05-13T14:19:52.488Z,35.10
2019-05-13T14:22:22.523Z,36.70
2019-05-13T14:24:52.579Z,35.00
2019-05-13T14:27:22.511Z,34.40
2019-05-13T14:29:52.789Z,34.80
2019-05-13T14:32:22.696Z,35.20
2019-05-13T14:34:52.900Z,35.20
2019-05-13T14:37:22.820Z,34.90
2019-05-13T14:39:53.147Z,35.10
2019-05-13T14:42:22.986Z,34.50
2019-05-13T14:44:52.786Z,34.00
2019-05-13T14:47:22.603Z,34.80
2019-05-13T14:49:52.505Z,34.10
2019-05-13T14:52:22.567Z,34.60
2019-05-13T14:54:52.419Z,33.50
2019-05-13T14:57:22.273Z,34.40
2019-05-13T14:59:52.086Z,34.00
2019-05-13T15:02:21.958Z,34.20
2019-05-13T15:04:52.432Z,33.80
2019-05-13T15:07:22.551Z,36.30
2019-05-13T15:09:52.374Z,35.00
2019-05-13T15:12:23.193Z,35.60
2019-05-13T15:14:53.017Z,35.80
2019-05-13T15:17:22.947Z,35.70
2019-05-13T15:19:53.103Z,35.20
2019-05-13T15:22:23.172Z,36.20
2019-05-13T15:24:53.036Z,36.10
2019-05-13T15:27:22.962Z,35.50
2019-05-13T15:29:52.813Z,35.50
2019-05-13T15:32:22.785Z,36.50
2019-05-13T15:34:52.619Z,35.80
2019-05-13T15:37:22.491Z,36.40
2019-05-13T15:39:52.316Z,33.60
2019-05-13T15:42:22.129Z,34.60
2019-05-13T15:44:53.149Z,35.00
2019-05-13T15:47:26.761Z,34.70
2019-05-13T15:49:55.003Z,35.50
2019-05-13T15:52:24.911Z,36.90
2019-05-13T15:54:54.879Z,36.80
2019-05-13T15:57:24.829Z,38.10
2019-05-13T15:59:54.742Z,38.20
2019-05-13T16:02:24.925Z,36.50
2019-05-13T16:05:01.267Z,36.90
2019-05-13T16:07:26.818Z,36.60
2019-05-13T16:09:56.734Z,37.00
2019-05-13T16:12:26.605Z,36.50
2019-05-13T16:14:57.045Z,37.00
2019-05-13T16:17:40.379Z,37.60
2019-05-13T16:19:58.377Z,38.70
2019-05-13T16:22:28.324Z,39.30
2019-05-13T16:24:58.266Z,38.10
2019-05-13T16:27:31.179Z,37.80
2019-05-13T16:30:02.395Z,37.90
2019-05-13T16:32:32.567Z,38.40
2019-05-13T16:35:02.945Z,37.40
2019-05-13T16:37:33.113Z,35.90
2019-05-13T16:40:03.068Z,34.70
2019-05-13T16:42:33.336Z,35.20
2019-05-13T16:45:03.254Z,36.10
2019-05-13T16:47:33.199Z,36.00
2019-05-13T16:50:03.025Z,36.60
2019-05-13T16:52:34.991Z,37.40
2019-05-13T16:55:04.974Z,38.80
2019-05-13T16:57:35.599Z,38.90
2019-05-13T17:00:05.708Z,38.70
2019-05-13T17:02:35.650Z,39.00
2019-05-13T17:05:05.782Z,39.20
2019-05-13T17:07:35.911Z,38.80
2019-05-13T17:10:06.105Z,38.30
2019-05-13T17:12:38.742Z,38.30
2019-05-13T17:15:09.934Z,38.20
2019-05-13T17:17:41.019Z,38.70
2019-05-13T17:20:12.707Z,38.20
2019-05-13T17:22:43.129Z,39.00
2019-05-13T17:25:13.165Z,39.00
2019-05-13T17:27:43.024Z,38.40
2019-05-13T17:30:13.123Z,39.00
2019-05-13T17:32:42.981Z,38.80
2019-05-13T17:35:12.822Z,38.40
2019-05-13T17:37:42.767Z,38.40
2019-05-13T17:40:12.887Z,38.80
2019-05-13T17:42:43.437Z,38.20
2019-05-13T17:45:13.604Z,38.40
2019-05-13T17:47:43.626Z,38.00
2019-05-13T17:50:15.290Z,38.00
2019-05-13T17:52:45.452Z,38.20
2019-05-13T17:55:22.329Z,37.80
2019-05-13T17:57:52.359Z,37.60
2019-05-13T18:00:22.950Z,37.70
2019-05-13T18:02:52.879Z,38.40
2019-05-13T18:05:22.809Z,37.70
2019-05-13T18:07:52.617Z,38.10
2019-05-13T18:10:22.711Z,37.40
2019-05-13T18:12:52.852Z,37.70
2019-05-13T18:15:22.817Z,37.40
2019-05-13T18:17:52.668Z,38.00
2019-05-13T18:20:22.544Z,36.80
2019-05-13T18:22:52.476Z,37.30
2019-05-13T18:25:22.474Z,35.50
2019-05-13T18:27:52.324Z,35.50
2019-05-13T18:30:22.715Z,35.10
2019-05-13T18:32:52.560Z,34.70
2019-05-13T18:35:22.385Z,34.60
2019-05-13T18:37:52.241Z,34.70
2019-05-13T18:40:22.235Z,34.10
2019-05-13T18:42:52.062Z,33.60
2019-05-13T18:45:22.132Z,33.00
2019-05-13T18:47:52.033Z,33.80
2019-05-13T18:50:22.062Z,34.40
2019-05-13T18:52:52.490Z,32.80
2019-05-13T18:55:22.604Z,33.60
2019-05-13T18:57:52.471Z,32.70
2019-05-13T19:00:22.676Z,33.40
2019-05-13T19:02:52.590Z,33.70
2019-05-13T19:05:23.073Z,34.30
2019-05-13T19:07:52.894Z,33.80
2019-05-13T19:10:25.298Z,34.00
2019-05-13T19:12:57.996Z,35.10
2019-05-13T19:15:27.999Z,34.80
2019-05-13T19:17:57.846Z,35.70
2019-05-13T19:20:27.995Z,34.40
2019-05-13T19:22:57.844Z,35.40
2019-05-13T19:25:27.695Z,35.80
2019-05-13T19:27:57.474Z,36.00
2019-05-13T19:30:27.319Z,36.40
2019-05-13T19:32:58.114Z,36.10
2019-05-13T19:35:27.955Z,36.00
2019-05-13T19:37:57.749Z,36.10
2019-05-13T19:40:27.528Z,36.50
2019-05-13T19:42:57.363Z,35.90
2019-05-13T19:45:28.214Z,35.80
2019-05-13T19:47:58.034Z,35.80
2019-05-13T19:50:27.918Z,36.00
2019-05-13T19:53:01.164Z,36.10
2019-05-13T19:55:33.694Z,36.50
2019-05-13T19:58:02.192Z,37.00
2019-05-13T20:00:32.807Z,36.80
2019-05-13T20:03:02.668Z,37.30
2019-05-13T20:05:32.523Z,37.80
2019-05-13T20:08:02.339Z,37.90
2019-05-13T20:10:37.535Z,38.30
2019-05-13T20:13:07.364Z,38.20
2019-05-13T20:15:41.283Z,38.90
2019-05-13T20:18:12.145Z,40.00
2019-05-13T20:20:42.242Z,40.90
2019-05-13T20:23:13.011Z,41.00
2019-05-13T20:25:42.921Z,42.30
2019-05-13T20:28:12.767Z,43.30
2019-05-13T20:30:45.495Z,45.10
2019-05-13T20:33:15.772Z,46.20
2019-05-13T20:35:45.663Z,46.90
2019-05-13T20:38:15.512Z,47.80
2019-05-13T20:40:45.369Z,48.40
2019-05-13T20:43:15.215Z,49.60
2019-05-13T20:45:45.059Z,50.20
2019-05-13T20:48:14.870Z,51.00
2019-05-13T20:50:46.823Z,51.50
2019-05-13T20:53:17.034Z,51.80
2019-05-13T20:55:46.974Z,52.40
2019-05-13T20:58:16.826Z,52.90
2019-05-13T21:00:46.737Z,53.00
2019-05-13T21:03:16.599Z,54.10
2019-05-13T21:05:46.484Z,55.50
2019-05-13T21:08:16.367Z,55.60
2019-05-13T21:10:46.245Z,56.10
2019-05-13T21:13:16.782Z,57.10
2019-05-13T21:15:47.647Z,57.80
2019-05-13T21:18:17.547Z,58.60
2019-05-13T21:20:47.379Z,59.10
2019-05-13T21:23:17.223Z,59.60
2019-05-13T21:25:47.113Z,60.40
2019-05-13T21:28:16.977Z,61.90
2019-05-13T21:30:46.842Z,62.70
2019-05-13T21:33:16.725Z,63.60
2019-05-13T21:35:46.525Z,64.60
2019-05-13T21:38:16.368Z,65.40
2019-05-13T21:40:46.166Z,66.30
2019-05-13T21:43:16.004Z,67.00
2019-05-13T21:45:45.797Z,68.20
2019-05-13T21:48:15.625Z,69.10
2019-05-13T21:50:45.439Z,70.10
2019-05-13T21:53:15.336Z,71.10
2019-05-13T21:55:45.157Z,72.60
2019-05-13T21:58:15.052Z,74.70
2019-05-13T22:00:46.760Z,76.60
2019-05-13T22:03:16.652Z,78.20
2019-05-13T22:05:46.473Z,80.30
2019-05-13T22:08:16.295Z,82.20
2019-05-13T22:10:46.412Z,86.50
2019-05-13T22:13:16.250Z,91.20
2019-05-13T22:15:46.038Z,93.60
2019-05-13T22:18:15.931Z,95.70
2019-05-13T22:20:50.268Z,97.80
2019-05-13T22:23:17.218Z,99.90
2019-05-13T22:25:47.111Z,99.90
2019-05-13T22:28:16.961Z,99.90
2019-05-13T22:30:46.772Z,99.90
2019-05-13T22:33:16.614Z,99.90
2019-05-13T22:35:46.443Z,99.90
2019-05-13T22:38:16.296Z,99.90
2019-05-13T22:40:46.177Z,99.90
2019-05-13T22:43:16.044Z,99.90
2019-05-13T22:45:45.914Z,99.90
2019-05-13T22:48:15.755Z,99.90
2019-05-13T22:50:45.548Z,99.90
2019-05-13T22:53:15.386Z,99.90
2019-05-13T22:55:45.140Z,99.90
2019-05-13T22:58:15.065Z,99.90
2019-05-13T23:00:44.910Z,99.90
2019-05-13T23:03:14.850Z,99.90
2019-05-13T23:05:44.703Z,99.90
2019-05-13T23:08:14.513Z,99.90
2019-05-13T23:10:44.371Z,99.90
2019-05-13T23:13:14.265Z,99.90
2019-05-13T23:15:44.120Z,99.90
2019-05-13T23:18:13.995Z,99.90
2019-05-13T23:20:43.896Z,99.90
2019-05-13T23:23:13.774Z,99.90
2019-05-13T23:25:43.608Z,99.90
2019-05-13T23:28:13.559Z,99.90
2019-05-13T23:30:43.362Z,99.90
2019-05-13T23:33:13.169Z,99.90
2019-05-13T23:35:42.937Z,99.90
2019-05-13T23:38:12.773Z,99.90
2019-05-13T23:40:42.627Z,99.90
2019-05-13T23:43:12.487Z,99.90
2019-05-13T23:45:42.324Z,99.90
2019-05-13T23:48:12.131Z,99.90
2019-05-13T23:50:42.235Z,99.90
2019-05-13T23:53:12.050Z,99.90
2019-05-13T23:55:41.881Z,99.90
2019-05-13T23:58:12.214Z,99.90
